KAXA

Details ICAO KAXA
Name ALGONA MUNI
Region United States
Timezone America/Chicago (UTC-5.0)
Plans Departing 3
Arriving 1
Stats Elevation 1,219 ft / 372 m (AMSL)
Location 43.078126° -94.271748°
Runways 2
Magnetic Variation 1.154° E
Sunrise 2018-05-27 10:44:47 UTC / 2018-05-27 05:44:47 Local
Sunset 2018-05-28 01:46:39 UTC / 2018-05-27 20:46:39 Local
Advertisement - Login to hide

Runways

ID Width Length Bearing (true) Bearing (mag) Surface Threshold Offset Overrun Length
12 75 ft / 23 m 3,957 ft / 1,206 m 131.73° 130.58° Concrete 0 ft / 0 m 0 ft / 0 m
18 160 ft / 49 m 2,884 ft / 879 m 187.47° 186.32° Grass 0 ft / 0 m 0 ft / 0 m
30 75 ft / 23 m 3,957 ft / 1,206 m 311.74° 310.59° Concrete 0 ft / 0 m 0 ft / 0 m
36 160 ft / 49 m 2,884 ft / 879 m 7.47° 6.32° Grass 0 ft / 0 m 0 ft / 0 m

Map

Weather


0- 5 10 15 20 25 30 35+ Temperature / ° C

Clouds and Precipitation
Forecast for 2018-05-27 18:00 UTC. Updated 5 hours ago

Ground ~20,000 ft ~40,000 ft Winds

METAR

KAXA 272215Z AUTO 13006KT 10SM CLR 37/14 A2980 RMK AO2

TAF

Not found

Frequencies

Recorded 118.47 MHz AWOS 3
Unicom 122.80 MHz CTAF/UNICOM
Warning: Do not use this data for real-world aviation or navigation. No guarantee of current accuracy is given.